PWSweather.com
Personal Weather Stations
Station Observations

YeovilGB

Lat: 50.949, Lon: -2.627

Elevation: 70

Station Type: Vantage Pro

http://www.yeovil-weather.me.uk/

High Low Average
Temperature 52.8°F11.6°C 38.1°F3.4°C 45.3°F7.4°C
Dew Point 49.5°F9.7°C 34.4°F1.3°C 40.4°F4.7°C
Winds 19.6 mph 31.5 kmh Calm Calm 6.0 mph SW9.7 kmh SW
Wind Gusts 34.5 mph55.5 kmh -- 11.0 mph17.7 kmh
Humidity 94% 73% 83%
Pressure 29.80 in1009.1 mb 29.46 in997.6 mb -
Precipitation 0.14 in3.6 mm - -
Hour Temp Dew Point Humidity Winds Wind Gusts Pressure Precip Precip Rate Daily Precip Total
12:00 AM 49.3°F9.6°C 47.6°F8.7°C 94% 9.2 mph SW14.8 kmh SW 15.0 mph24.1 kmh 29.53 in1000.0 mb - 0.00 in0.0 mm 0.00 in0.0 mm
12:10 AM 49.5°F9.7°C 47.8°F8.8°C 94% 10.4 mph SSW16.7 kmh SSW 13.8 mph22.2 kmh 29.52 in999.7 mb - 0.00 in0.0 mm 0.00 in0.0 mm
12:20 AM 49.8°F9.9°C 48.1°F8.9°C 94% 9.2 mph SW14.8 kmh SW 16.1 mph25.9 kmh 29.51 in999.3 mb - 0.00 in0.0 mm 0.00 in0.0 mm
12:30 AM 50.0°F10.0°C 48.3°F9.1°C 94% 5.8 mph SW9.3 kmh SW 12.7 mph20.4 kmh 29.51 in999.3 mb - 0.00 in0.0 mm 0.00 in0.0 mm
12:40 AM 50.2°F10.1°C 48.5°F9.2°C 94% 6.9 mph SSW11.1 kmh SSW 13.8 mph22.2 kmh 29.50 in999.0 mb - 0.00 in0.0 mm 0.00 in0.0 mm
12:50 AM 50.5°F10.3°C 48.8°F9.3°C 94% 10.4 mph SW16.7 kmh SW 18.4 mph29.6 kmh 29.49 in998.6 mb - 0.00 in0.0 mm 0.00 in0.0 mm
01:00 AM 50.8°F10.4°C 49.1°F9.5°C 94% 11.5 mph SW18.5 kmh SW 16.1 mph25.9 kmh 29.49 in998.6 mb - 0.00 in0.0 mm 0.00 in0.0 mm
01:10 AM 51.2°F10.7°C 49.2°F9.6°C 93% 11.5 mph SW18.5 kmh SW 15.0 mph24.1 kmh 29.48 in998.3 mb - 0.00 in0.0 mm 0.00 in0.0 mm
01:20 AM 51.5°F10.8°C 49.3°F9.6°C 92% 11.5 mph SW18.5 kmh SW 21.9 mph35.2 kmh 29.48 in998.3 mb - 0.00 in0.0 mm 0.00 in0.0 mm
01:30 AM 51.7°F10.9°C 49.5°F9.7°C 92% 13.8 mph SSW22.2 kmh SSW 18.4 mph29.6 kmh 29.48 in998.3 mb - 0.00 in0.0 mm 0.00 in0.0 mm
01:40 AM 51.7°F10.9°C 49.2°F9.6°C 91% 9.2 mph SW14.8 kmh SW 21.9 mph35.2 kmh 29.47 in998.0 mb - 0.00 in0.0 mm 0.00 in0.0 mm
01:50 AM 52.1°F11.2°C 49.0°F9.4°C 89% 9.2 mph SSW14.8 kmh SSW 12.7 mph20.4 kmh 29.47 in998.0 mb - 0.00 in0.0 mm 0.00 in0.0 mm
02:00 AM 52.2°F11.2°C 49.1°F9.5°C 89% 10.4 mph SW16.7 kmh SW 34.5 mph55.5 kmh 29.47 in998.0 mb - 0.00 in0.0 mm 0.00 in0.0 mm
02:10 AM 52.5°F11.4°C 48.7°F9.3°C 87% 11.5 mph SW18.5 kmh SW 24.2 mph38.9 kmh 29.47 in998.0 mb - 0.00 in0.0 mm 0.00 in0.0 mm
02:20 AM 52.5°F11.4°C 48.1°F8.9°C 85% 10.4 mph SW16.7 kmh SW 16.1 mph25.9 kmh 29.47 in998.0 mb - 0.00 in0.0 mm 0.00 in0.0 mm
02:30 AM 52.6°F11.4°C 47.6°F8.7°C 83% 6.9 mph SW11.1 kmh SW 18.4 mph29.6 kmh 29.46 in997.6 mb - 0.00 in0.0 mm 0.00 in0.0 mm
02:40 AM 52.4°F11.3°C 47.1°F8.4°C 82% 10.4 mph SW16.7 kmh SW 23.0 mph37.0 kmh 29.46 in997.6 mb - 0.00 in0.0 mm 0.00 in0.0 mm
02:50 AM 52.6°F11.4°C 46.6°F8.1°C 80% 18.4 mph SW29.6 kmh SW 32.2 mph51.8 kmh 29.46 in997.6 mb - 0.00 in0.0 mm 0.00 in0.0 mm
03:00 AM 52.8°F11.6°C 46.5°F8.1°C 79% 19.6 mph SW31.5 kmh SW 28.8 mph46.3 kmh 29.46 in997.6 mb - 0.00 in0.0 mm 0.00 in0.0 mm
03:10 AM 52.8°F11.6°C 46.5°F8.1°C 79% 15.0 mph SW24.1 kmh SW 25.3 mph40.7 kmh 29.46 in997.6 mb - 0.00 in0.0 mm 0.00 in0.0 mm
03:20 AM 52.6°F11.4°C 45.9°F7.7°C 78% 18.4 mph SW29.6 kmh SW 26.5 mph42.6 kmh 29.48 in998.3 mb - 0.00 in0.0 mm 0.00 in0.0 mm
03:30 AM 52.4°F11.3°C 45.4°F7.4°C 77% 13.8 mph WSW22.2 kmh WSW 20.7 mph33.3 kmh 29.48 in998.3 mb - 0.00 in0.0 mm 0.00 in0.0 mm
03:40 AM 51.8°F11.0°C 44.5°F6.9°C 76% 16.1 mph WSW25.9 kmh WSW 26.5 mph42.6 kmh 29.49 in998.6 mb - 0.00 in0.0 mm 0.00 in0.0 mm
03:50 AM 51.1°F10.6°C 43.1°F6.2°C 74% 16.1 mph SW25.9 kmh SW 27.6 mph44.4 kmh 29.49 in998.6 mb - 0.00 in0.0 mm 0.00 in0.0 mm
04:00 AM 50.9°F10.5°C 43.2°F6.2°C 75% 11.5 mph SW18.5 kmh SW 25.3 mph40.7 kmh 29.49 in998.6 mb - 0.00 in0.0 mm 0.00 in0.0 mm
04:10 AM 50.7°F10.4°C 43.1°F6.2°C 75% 9.2 mph SW14.8 kmh SW 18.4 mph29.6 kmh 29.49 in998.6 mb - 0.00 in0.0 mm 0.00 in0.0 mm
04:20 AM 50.3°F10.2°C 43.1°F6.2°C 76% 16.1 mph WSW25.9 kmh WSW 24.2 mph38.9 kmh 29.50 in999.0 mb - 0.00 in0.0 mm 0.00 in0.0 mm
04:30 AM 50.1°F10.1°C 43.2°F6.2°C 77% 10.4 mph WSW16.7 kmh WSW 15.0 mph24.1 kmh 29.51 in999.3 mb - 0.00 in0.0 mm 0.00 in0.0 mm
04:40 AM 49.9°F9.9°C 43.0°F6.1°C 77% 6.9 mph WSW11.1 kmh WSW 10.4 mph16.7 kmh 29.52 in999.7 mb - 0.00 in0.0 mm 0.00 in0.0 mm
04:50 AM 49.2°F9.6°C 40.9°F4.9°C 73% 12.7 mph W20.4 kmh W 29.9 mph48.1 kmh 29.53 in1000.0 mb - 0.00 in0.0 mm 0.00 in0.0 mm
05:00 AM 48.8°F9.3°C 40.6°F4.8°C 73% 13.8 mph WSW22.2 kmh WSW 19.6 mph31.5 kmh 29.53 in1000.0 mb - 0.00 in0.0 mm 0.00 in0.0 mm
05:10 AM 48.6°F9.2°C 40.7°F4.8°C 74% 8.1 mph SW13.0 kmh SW 19.6 mph31.5 kmh 29.53 in1000.0 mb - 0.00 in0.0 mm 0.00 in0.0 mm
05:20 AM 48.2°F9.0°C 40.6°F4.8°C 75% 11.5 mph WSW18.5 kmh WSW 23.0 mph37.0 kmh 29.54 in1000.3 mb - 0.00 in0.0 mm 0.00 in0.0 mm
05:30 AM 47.9°F8.8°C 40.7°F4.8°C 76% 9.2 mph WSW14.8 kmh WSW 13.8 mph22.2 kmh 29.55 in1000.7 mb - 0.00 in0.0 mm 0.00 in0.0 mm
05:40 AM 47.6°F8.7°C 40.7°F4.8°C 77% 6.9 mph WSW11.1 kmh WSW 12.7 mph20.4 kmh 29.55 in1000.7 mb - 0.00 in0.0 mm 0.00 in0.0 mm
05:50 AM 47.3°F8.5°C 40.5°F4.7°C 77% 6.9 mph WSW11.1 kmh WSW 10.4 mph16.7 kmh 29.56 in1001.0 mb - 0.00 in0.0 mm 0.00 in0.0 mm
06:00 AM 46.9°F8.3°C 40.4°F4.7°C 78% 6.9 mph SW11.1 kmh SW 15.0 mph24.1 kmh 29.56 in1001.0 mb - 0.00 in0.0 mm 0.00 in0.0 mm
06:10 AM 46.7°F8.2°C 40.5°F4.7°C 79% 2.3 mph WSW3.7 kmh WSW 8.1 mph13.0 kmh 29.57 in1001.4 mb - 0.00 in0.0 mm 0.00 in0.0 mm
06:20 AM 46.5°F8.1°C 40.4°F4.7°C 79% 3.5 mph WSW5.6 kmh WSW 9.2 mph14.8 kmh 29.58 in1001.7 mb - 0.00 in0.0 mm 0.00 in0.0 mm
06:30 AM 46.5°F8.1°C 40.3°F4.6°C 79% 1.2 mph WSW1.9 kmh WSW 4.6 mph7.4 kmh 29.58 in1001.7 mb - 0.00 in0.0 mm 0.00 in0.0 mm
06:40 AM 46.3°F7.9°C 39.8°F4.3°C 78% 4.6 mph WSW7.4 kmh WSW 11.5 mph18.5 kmh 29.59 in1002.0 mb - 0.00 in0.0 mm 0.00 in0.0 mm
06:50 AM 46.3°F7.9°C 40.1°F4.5°C 79% 2.3 mph SW3.7 kmh SW 5.8 mph9.3 kmh 29.59 in1002.0 mb - 0.00 in0.0 mm 0.00 in0.0 mm
07:00 AM 46.1°F7.8°C 39.9°F4.4°C 79% 5.8 mph WSW9.3 kmh WSW 9.2 mph14.8 kmh 29.59 in1002.0 mb - 0.00 in0.0 mm 0.00 in0.0 mm
07:10 AM 45.9°F7.7°C 40.1°F4.5°C 80% 5.8 mph WSW9.3 kmh WSW 10.4 mph16.7 kmh 29.60 in1002.4 mb - 0.00 in0.0 mm 0.00 in0.0 mm
07:20 AM 45.8°F7.7°C 40.3°F4.6°C 81% 1.2 mph WSW1.9 kmh WSW 3.5 mph5.6 kmh 29.61 in1002.7 mb - 0.00 in0.0 mm 0.00 in0.0 mm
07:30 AM 45.5°F7.5°C 40.0°F4.4°C 81% 1.2 mph WSW1.9 kmh WSW 8.1 mph13.0 kmh 29.61 in1002.7 mb - 0.00 in0.0 mm 0.00 in0.0 mm
07:40 AM 45.4°F7.4°C 40.2°F4.6°C 82% 5.8 mph SW9.3 kmh SW 11.5 mph18.5 kmh 29.61 in1002.7 mb - 0.00 in0.0 mm 0.00 in0.0 mm
07:50 AM 45.4°F7.4°C 40.3°F4.6°C 82% 4.6 mph SW7.4 kmh SW 5.8 mph9.3 kmh 29.62 in1003.0 mb - 0.00 in0.0 mm 0.00 in0.0 mm
08:00 AM 45.2°F7.3°C 40.0°F4.4°C 82% 3.5 mph WSW5.6 kmh WSW 11.5 mph18.5 kmh 29.62 in1003.0 mb - 0.00 in0.0 mm 0.00 in0.0 mm
08:10 AM 44.8°F7.1°C 39.9°F4.4°C 83% 3.5 mph SW5.6 kmh SW 9.2 mph14.8 kmh 29.63 in1003.4 mb - 0.00 in0.0 mm 0.00 in0.0 mm
08:20 AM 44.4°F6.9°C 39.9°F4.4°C 84% Calm Calm -- 29.63 in1003.4 mb - 0.00 in0.0 mm 0.00 in0.0 mm
08:30 AM 44.2°F6.8°C 40.0°F4.4°C 85% Calm Calm -- 29.64 in1003.7 mb - 0.00 in0.0 mm 0.00 in0.0 mm
08:40 AM 43.9°F6.6°C 39.7°F4.3°C 85% Calm Calm -- 29.64 in1003.7 mb - 0.00 in0.0 mm 0.00 in0.0 mm
08:50 AM 43.7°F6.5°C 39.5°F4.2°C 85% Calm Calm 4.6 mph7.4 kmh 29.64 in1003.7 mb - 0.00 in0.0 mm 0.00 in0.0 mm
09:00 AM 43.8°F6.6°C 39.6°F4.2°C 85% Calm Calm -- 29.65 in1004.1 mb - 0.00 in0.0 mm 0.00 in0.0 mm
09:10 AM 44.3°F6.8°C 39.8°F4.3°C 84% 2.3 mph SW3.7 kmh SW 8.1 mph13.0 kmh 29.65 in1004.1 mb - 0.00 in0.0 mm 0.00 in0.0 mm
09:20 AM 44.7°F7.1°C 40.2°F4.6°C 84% 3.5 mph WSW5.6 kmh WSW 10.4 mph16.7 kmh 29.65 in1004.1 mb - 0.00 in0.0 mm 0.00 in0.0 mm
09:30 AM 45.1°F7.3°C 40.6°F4.8°C 84% 5.8 mph SW9.3 kmh SW 11.5 mph18.5 kmh 29.65 in1004.1 mb - 0.00 in0.0 mm 0.00 in0.0 mm
09:40 AM 45.5°F7.5°C 40.7°F4.8°C 83% 1.2 mph SW1.9 kmh SW 10.4 mph16.7 kmh 29.66 in1004.4 mb - 0.00 in0.0 mm 0.00 in0.0 mm
09:50 AM 45.9°F7.7°C 40.7°F4.8°C 82% 8.1 mph SW13.0 kmh SW 10.4 mph16.7 kmh 29.66 in1004.4 mb - 0.00 in0.0 mm 0.00 in0.0 mm
10:00 AM 46.1°F7.8°C 40.6°F4.8°C 81% 3.5 mph SW5.6 kmh SW 10.4 mph16.7 kmh 29.66 in1004.4 mb - 0.00 in0.0 mm 0.00 in0.0 mm
10:10 AM 46.1°F7.8°C 40.5°F4.7°C 81% 8.1 mph SW13.0 kmh SW 15.0 mph24.1 kmh 29.66 in1004.4 mb - 0.00 in0.0 mm 0.00 in0.0 mm
10:20 AM 46.0°F7.8°C 40.5°F4.7°C 81% 1.2 mph SW1.9 kmh SW 8.1 mph13.0 kmh 29.66 in1004.4 mb - 0.00 in0.0 mm 0.00 in0.0 mm
10:30 AM 46.4°F8.0°C 40.9°F4.9°C 81% 6.9 mph SW11.1 kmh SW 11.5 mph18.5 kmh 29.66 in1004.4 mb - 0.00 in0.0 mm 0.00 in0.0 mm
10:40 AM 46.7°F8.2°C 40.5°F4.7°C 79% 4.6 mph SW7.4 kmh SW 8.1 mph13.0 kmh 29.66 in1004.4 mb - 0.00 in0.0 mm 0.00 in0.0 mm
10:50 AM 46.7°F8.2°C 40.5°F4.7°C 79% 4.6 mph SW7.4 kmh SW 8.1 mph13.0 kmh 29.67 in1004.7 mb - 0.00 in0.0 mm 0.00 in0.0 mm
11:00 AM 46.8°F8.2°C 40.3°F4.6°C 78% 8.1 mph SW13.0 kmh SW 10.4 mph16.7 kmh 29.67 in1004.7 mb - 0.00 in0.0 mm 0.00 in0.0 mm
11:10 AM 46.7°F8.2°C 40.5°F4.7°C 79% 6.9 mph SW11.1 kmh SW 9.2 mph14.8 kmh 29.67 in1004.7 mb - 0.00 in0.0 mm 0.00 in0.0 mm
11:20 AM 46.5°F8.1°C 40.7°F4.8°C 80% 4.6 mph SW7.4 kmh SW 13.8 mph22.2 kmh 29.67 in1004.7 mb - 0.00 in0.0 mm 0.00 in0.0 mm
11:30 AM 46.5°F8.1°C 41.0°F5.0°C 81% 4.6 mph SW7.4 kmh SW 4.6 mph7.4 kmh 29.67 in1004.7 mb - 0.00 in0.0 mm 0.00 in0.0 mm
11:40 AM 47.8°F8.8°C 42.6°F5.9°C 82% 2.3 mph SW3.7 kmh SW 8.1 mph13.0 kmh 29.67 in1004.7 mb - 0.00 in0.0 mm 0.00 in0.0 mm
11:50 AM 49.3°F9.6°C 43.4°F6.3°C 80% 5.8 mph SW9.3 kmh SW 12.7 mph20.4 kmh 29.67 in1004.7 mb - 0.00 in0.0 mm 0.00 in0.0 mm
12:00 PM 49.4°F9.7°C 42.8°F6.0°C 78% 2.3 mph SW3.7 kmh SW 5.8 mph9.3 kmh 29.66 in1004.4 mb - 0.00 in0.0 mm 0.00 in0.0 mm
12:10 PM 49.3°F9.6°C 42.7°F5.9°C 78% 8.1 mph SW13.0 kmh SW 12.7 mph20.4 kmh 29.66 in1004.4 mb - 0.00 in0.0 mm 0.00 in0.0 mm
12:20 PM 48.5°F9.2°C 42.3°F5.7°C 79% 5.8 mph SW9.3 kmh SW 10.4 mph16.7 kmh 29.66 in1004.4 mb - 0.00 in0.0 mm 0.00 in0.0 mm
12:30 PM 49.2°F9.6°C 42.3°F5.7°C 77% 9.2 mph SW14.8 kmh SW 15.0 mph24.1 kmh 29.65 in1004.1 mb - 0.00 in0.0 mm 0.00 in0.0 mm
12:40 PM 49.0°F9.4°C 42.1°F5.6°C 77% 11.5 mph SW18.5 kmh SW 16.1 mph25.9 kmh 29.65 in1004.1 mb - 0.00 in0.0 mm 0.00 in0.0 mm
12:50 PM 47.9°F8.8°C 42.0°F5.6°C 80% 9.2 mph NW14.8 kmh NW 11.5 mph18.5 kmh 29.68 in1005.1 mb - 0.02 in0.5 mm 0.02 in0.5 mm
01:00 PM 44.2°F6.8°C 39.4°F4.1°C 83% 2.3 mph NNW3.7 kmh NNW 6.9 mph11.1 kmh 29.67 in1004.7 mb - 0.09 in2.3 mm 0.10 in2.5 mm
01:10 PM 43.1°F6.2°C 39.8°F4.3°C 88% 2.3 mph SW3.7 kmh SW 5.8 mph9.3 kmh 29.66 in1004.4 mb - 0.01 in0.3 mm 0.11 in2.8 mm
01:20 PM 43.5°F6.4°C 41.0°F5.0°C 91% 4.6 mph SW7.4 kmh SW 6.9 mph11.1 kmh 29.66 in1004.4 mb - 0.00 in0.0 mm 0.11 in2.8 mm
01:30 PM 44.4°F6.9°C 42.2°F5.7°C 92% 5.8 mph SW9.3 kmh SW 6.9 mph11.1 kmh 29.66 in1004.4 mb - 0.00 in0.0 mm 0.11 in2.8 mm
01:40 PM 45.3°F7.4°C 43.1°F6.2°C 92% 2.3 mph SW3.7 kmh SW 1.2 mph1.9 kmh 29.65 in1004.1 mb - 0.00 in0.0 mm 0.11 in2.8 mm
01:50 PM 45.6°F7.6°C 43.4°F6.3°C 92% Calm Calm -- 29.65 in1004.1 mb - 0.00 in0.0 mm 0.11 in2.8 mm
02:00 PM 46.4°F8.0°C 44.0°F6.7°C 91% 6.9 mph SW11.1 kmh SW 11.5 mph18.5 kmh 29.66 in1004.4 mb - 0.00 in0.0 mm 0.11 in2.8 mm
02:10 PM 47.0°F8.3°C 43.6°F6.4°C 88% 4.6 mph SW7.4 kmh SW 8.1 mph13.0 kmh 29.65 in1004.1 mb - 0.00 in0.0 mm 0.11 in2.8 mm
02:20 PM 47.4°F8.6°C 42.8°F6.0°C 84% 8.1 mph WSW13.0 kmh WSW 15.0 mph24.1 kmh 29.66 in1004.4 mb - 0.00 in0.0 mm 0.11 in2.8 mm
02:30 PM 47.6°F8.7°C 42.1°F5.6°C 81% 4.6 mph SW7.4 kmh SW 11.5 mph18.5 kmh 29.66 in1004.4 mb - 0.00 in0.0 mm 0.11 in2.8 mm
02:40 PM 47.8°F8.8°C 41.6°F5.3°C 79% 6.9 mph SW11.1 kmh SW 13.8 mph22.2 kmh 29.66 in1004.4 mb - 0.00 in0.0 mm 0.11 in2.8 mm
02:50 PM 47.7°F8.7°C 41.2°F5.1°C 78% 6.9 mph WSW11.1 kmh WSW 12.7 mph20.4 kmh 29.66 in1004.4 mb - 0.00 in0.0 mm 0.11 in2.8 mm
03:00 PM 46.7°F8.2°C 38.9°F3.8°C 74% 4.6 mph W7.4 kmh W 9.2 mph14.8 kmh 29.66 in1004.4 mb - 0.00 in0.0 mm 0.11 in2.8 mm
03:10 PM 46.0°F7.8°C 37.9°F3.3°C 73% 8.1 mph SW13.0 kmh SW 10.4 mph16.7 kmh 29.67 in1004.7 mb - 0.00 in0.0 mm 0.11 in2.8 mm
03:20 PM 45.7°F7.6°C 38.9°F3.8°C 77% 1.2 mph WSW1.9 kmh WSW 4.6 mph7.4 kmh 29.67 in1004.7 mb - 0.00 in0.0 mm 0.11 in2.8 mm
03:30 PM 45.3°F7.4°C 39.5°F4.2°C 80% 3.5 mph W5.6 kmh W 8.1 mph13.0 kmh 29.68 in1005.1 mb - 0.00 in0.0 mm 0.11 in2.8 mm
03:40 PM 44.9°F7.2°C 39.1°F3.9°C 80% 2.3 mph SW3.7 kmh SW 3.5 mph5.6 kmh 29.69 in1005.4 mb - 0.01 in0.3 mm 0.12 in3.0 mm
03:50 PM 43.9°F6.6°C 39.0°F3.9°C 83% 5.8 mph SW9.3 kmh SW 10.4 mph16.7 kmh 29.69 in1005.4 mb - 0.02 in0.5 mm 0.13 in3.3 mm
04:00 PM 43.0°F6.1°C 39.1°F3.9°C 86% 4.6 mph WSW7.4 kmh WSW 8.1 mph13.0 kmh 29.69 in1005.4 mb - 0.00 in0.0 mm 0.13 in3.3 mm
04:10 PM 42.4°F5.8°C 38.8°F3.8°C 87% 5.8 mph SW9.3 kmh SW 9.2 mph14.8 kmh 29.69 in1005.4 mb - 0.00 in0.0 mm 0.13 in3.3 mm
04:20 PM 42.2°F5.7°C 38.6°F3.7°C 87% 4.6 mph WSW7.4 kmh WSW 5.8 mph9.3 kmh 29.69 in1005.4 mb - 0.00 in0.0 mm 0.13 in3.3 mm
04:30 PM 42.1°F5.6°C 38.5°F3.6°C 87% 4.6 mph SW7.4 kmh SW 4.6 mph7.4 kmh 29.69 in1005.4 mb - 0.00 in0.0 mm 0.13 in3.3 mm
04:40 PM 41.8°F5.4°C 38.5°F3.6°C 88% 2.3 mph SW3.7 kmh SW 5.8 mph9.3 kmh 29.70 in1005.8 mb - 0.00 in0.0 mm 0.13 in3.3 mm
04:50 PM 41.5°F5.3°C 38.2°F3.4°C 88% 3.5 mph SW5.6 kmh SW 8.1 mph13.0 kmh 29.70 in1005.8 mb - 0.00 in0.0 mm 0.13 in3.3 mm
05:00 PM 41.3°F5.2°C 38.0°F3.3°C 88% 2.3 mph SW3.7 kmh SW 6.9 mph11.1 kmh 29.70 in1005.8 mb - 0.00 in0.0 mm 0.13 in3.3 mm
05:10 PM 41.2°F5.1°C 38.0°F3.3°C 88% 5.8 mph SW9.3 kmh SW 11.5 mph18.5 kmh 29.70 in1005.8 mb - 0.00 in0.0 mm 0.13 in3.3 mm
05:20 PM 41.6°F5.3°C 38.0°F3.3°C 87% 8.1 mph SW13.0 kmh SW 10.4 mph16.7 kmh 29.71 in1006.1 mb - 0.00 in0.0 mm 0.13 in3.3 mm
05:30 PM 41.8°F5.4°C 37.9°F3.3°C 86% 4.6 mph SW7.4 kmh SW 10.4 mph16.7 kmh 29.72 in1006.4 mb - 0.00 in0.0 mm 0.13 in3.3 mm
05:40 PM 41.7°F5.4°C 37.5°F3.1°C 85% 2.3 mph WSW3.7 kmh WSW 3.5 mph5.6 kmh 29.72 in1006.4 mb - 0.00 in0.0 mm 0.13 in3.3 mm
05:50 PM 41.6°F5.3°C 37.1°F2.8°C 84% 6.9 mph SW11.1 kmh SW 11.5 mph18.5 kmh 29.73 in1006.8 mb - 0.00 in0.0 mm 0.13 in3.3 mm
06:00 PM 41.5°F5.3°C 37.0°F2.8°C 84% 6.9 mph SW11.1 kmh SW 12.7 mph20.4 kmh 29.73 in1006.8 mb - 0.00 in0.0 mm 0.13 in3.3 mm
06:10 PM 41.2°F5.1°C 36.7°F2.6°C 84% 8.1 mph SW13.0 kmh SW 12.7 mph20.4 kmh 29.73 in1006.8 mb - 0.00 in0.0 mm 0.13 in3.3 mm
06:20 PM 40.9°F4.9°C 36.4°F2.4°C 84% 6.9 mph SW11.1 kmh SW 9.2 mph14.8 kmh 29.73 in1006.8 mb - 0.00 in0.0 mm 0.13 in3.3 mm
06:30 PM 40.7°F4.8°C 36.2°F2.3°C 84% 3.5 mph SW5.6 kmh SW 9.2 mph14.8 kmh 29.73 in1006.8 mb - 0.00 in0.0 mm 0.13 in3.3 mm
06:40 PM 40.7°F4.8°C 36.2°F2.3°C 84% 5.8 mph WSW9.3 kmh WSW 13.8 mph22.2 kmh 29.73 in1006.8 mb - 0.00 in0.0 mm 0.13 in3.3 mm
06:50 PM 40.6°F4.8°C 36.1°F2.3°C 84% 3.5 mph SW5.6 kmh SW 10.4 mph16.7 kmh 29.74 in1007.1 mb - 0.00 in0.0 mm 0.13 in3.3 mm
07:00 PM 40.6°F4.8°C 35.5°F1.9°C 82% 4.6 mph SW7.4 kmh SW 11.5 mph18.5 kmh 29.74 in1007.1 mb - 0.00 in0.0 mm 0.13 in3.3 mm
07:10 PM 40.6°F4.8°C 35.5°F1.9°C 82% 4.6 mph SW7.4 kmh SW 8.1 mph13.0 kmh 29.74 in1007.1 mb - 0.00 in0.0 mm 0.13 in3.3 mm
07:20 PM 40.4°F4.7°C 35.3°F1.8°C 82% 4.6 mph WSW7.4 kmh WSW 10.4 mph16.7 kmh 29.75 in1007.5 mb - 0.00 in0.0 mm 0.13 in3.3 mm
07:30 PM 40.2°F4.6°C 35.1°F1.7°C 82% 3.5 mph SW5.6 kmh SW 5.8 mph9.3 kmh 29.75 in1007.5 mb - 0.00 in0.0 mm 0.13 in3.3 mm
07:40 PM 40.2°F4.6°C 35.1°F1.7°C 82% 3.5 mph W5.6 kmh W 5.8 mph9.3 kmh 29.75 in1007.5 mb - 0.00 in0.0 mm 0.13 in3.3 mm
07:50 PM 39.9°F4.4°C 35.5°F1.9°C 84% 1.2 mph WSW1.9 kmh WSW 4.6 mph7.4 kmh 29.76 in1007.8 mb - 0.00 in0.0 mm 0.13 in3.3 mm
08:00 PM 39.7°F4.3°C 35.6°F2.0°C 85% 4.6 mph WSW7.4 kmh WSW 5.8 mph9.3 kmh 29.76 in1007.8 mb - 0.00 in0.0 mm 0.13 in3.3 mm
08:10 PM 39.8°F4.3°C 35.7°F2.1°C 85% 4.6 mph SSW7.4 kmh SSW 6.9 mph11.1 kmh 29.76 in1007.8 mb - 0.00 in0.0 mm 0.13 in3.3 mm
08:20 PM 40.1°F4.5°C 35.3°F1.8°C 83% 4.6 mph SW7.4 kmh SW 11.5 mph18.5 kmh 29.76 in1007.8 mb - 0.00 in0.0 mm 0.13 in3.3 mm
08:30 PM 40.2°F4.6°C 34.8°F1.6°C 81% 5.8 mph SW9.3 kmh SW 8.1 mph13.0 kmh 29.77 in1008.1 mb - 0.00 in0.0 mm 0.13 in3.3 mm
08:40 PM 40.3°F4.6°C 34.9°F1.6°C 81% 4.6 mph SW7.4 kmh SW 6.9 mph11.1 kmh 29.77 in1008.1 mb - 0.01 in0.3 mm 0.14 in3.6 mm
08:50 PM 40.4°F4.7°C 35.6°F2.0°C 83% 5.8 mph WSW9.3 kmh WSW 10.4 mph16.7 kmh 29.77 in1008.1 mb - 0.01 in0.3 mm 0.14 in3.6 mm
09:00 PM 39.9°F4.4°C 35.4°F1.9°C 84% 3.5 mph SW5.6 kmh SW 8.1 mph13.0 kmh 29.77 in1008.1 mb - 0.00 in0.0 mm 0.14 in3.6 mm
09:10 PM 39.5°F4.2°C 35.3°F1.8°C 85% Calm Calm -- 29.77 in1008.1 mb - 0.00 in0.0 mm 0.14 in3.6 mm
09:20 PM 39.1°F3.9°C 35.3°F1.8°C 86% Calm Calm 4.6 mph7.4 kmh 29.77 in1008.1 mb - 0.00 in0.0 mm 0.14 in3.6 mm
09:30 PM 38.8°F3.8°C 35.3°F1.8°C 87% 2.3 mph SW3.7 kmh SW 6.9 mph11.1 kmh 29.78 in1008.5 mb - 0.00 in0.0 mm 0.14 in3.6 mm
09:40 PM 38.7°F3.7°C 35.2°F1.8°C 87% Calm Calm 8.1 mph13.0 kmh 29.78 in1008.5 mb - 0.00 in0.0 mm 0.14 in3.6 mm
09:50 PM 38.9°F3.8°C 35.1°F1.7°C 86% 1.2 mph WSW1.9 kmh WSW 4.6 mph7.4 kmh 29.78 in1008.5 mb - 0.00 in0.0 mm 0.14 in3.6 mm
10:00 PM 38.8°F3.8°C 35.0°F1.7°C 86% Calm Calm -- 29.78 in1008.5 mb - 0.00 in0.0 mm 0.14 in3.6 mm
10:10 PM 38.5°F3.6°C 34.7°F1.5°C 86% Calm Calm -- 29.78 in1008.5 mb - 0.00 in0.0 mm 0.14 in3.6 mm
10:20 PM 38.2°F3.4°C 34.7°F1.5°C 87% Calm Calm -- 29.77 in1008.1 mb - 0.00 in0.0 mm 0.14 in3.6 mm
10:30 PM 38.1°F3.4°C 34.6°F1.4°C 87% 1.2 mph WSW1.9 kmh WSW -- 29.78 in1008.5 mb - 0.00 in0.0 mm 0.14 in3.6 mm
10:40 PM 38.2°F3.4°C 34.7°F1.5°C 87% Calm Calm -- 29.78 in1008.5 mb - 0.00 in0.0 mm 0.14 in3.6 mm
10:50 PM 38.4°F3.6°C 34.6°F1.4°C 86% Calm Calm 2.3 mph3.7 kmh 29.79 in1008.8 mb - 0.00 in0.0 mm 0.14 in3.6 mm
11:00 PM 38.4°F3.6°C 34.6°F1.4°C 86% 2.3 mph SW3.7 kmh SW 4.6 mph7.4 kmh 29.78 in1008.5 mb - 0.00 in0.0 mm 0.14 in3.6 mm
11:10 PM 38.5°F3.6°C 34.7°F1.5°C 86% Calm Calm -- 29.79 in1008.8 mb - 0.00 in0.0 mm 0.14 in3.6 mm
11:20 PM 38.5°F3.6°C 35.0°F1.7°C 87% 2.3 mph SSW3.7 kmh SSW 6.9 mph11.1 kmh 29.79 in1008.8 mb - 0.00 in0.0 mm 0.14 in3.6 mm
11:30 PM 38.6°F3.7°C 34.8°F1.6°C 86% Calm Calm -- 29.79 in1008.8 mb - 0.00 in0.0 mm 0.14 in3.6 mm
11:40 PM 38.4°F3.6°C 34.6°F1.4°C 86% 3.5 mph WSW5.6 kmh WSW 9.2 mph14.8 kmh 29.79 in1008.8 mb - 0.00 in0.0 mm 0.14 in3.6 mm
11:50 PM 38.2°F3.4°C 34.4°F1.3°C 86% 1.2 mph SW1.9 kmh SW 3.5 mph5.6 kmh 29.80 in1009.1 mb - 0.00 in0.0 mm 0.14 in3.6 mm